sensor_id;sensor_type;location;lat;lon;timestamp;P1;durP1;ratioP1;P2;durP2;ratioP2
4375;SDS011;2202;50.866;12.750;2022-11-20T00:01:16;47.93;;;26.73;;
4375;SDS011;2202;50.866;12.750;2022-11-20T00:03:44;45.33;;;26.00;;
4375;SDS011;2202;50.866;12.750;2022-11-20T00:06:12;42.90;;;27.00;;
4375;SDS011;2202;50.866;12.750;2022-11-20T00:08:40;42.60;;;26.63;;
4375;SDS011;2202;50.866;12.750;2022-11-20T00:11:08;46.77;;;25.60;;
4375;SDS011;2202;50.866;12.750;2022-11-20T00:13:36;43.40;;;26.03;;
4375;SDS011;2202;50.866;12.750;2022-11-20T00:16:04;50.43;;;25.17;;
4375;SDS011;2202;50.866;12.750;2022-11-20T00:18:34;45.17;;;26.43;;
4375;SDS011;2202;50.866;12.750;2022-11-20T00:21:01;43.93;;;25.13;;
4375;SDS011;2202;50.866;12.750;2022-11-20T00:23:29;43.40;;;24.60;;
4375;SDS011;2202;50.866;12.750;2022-11-20T00:25:56;41.83;;;22.03;;
4375;SDS011;2202;50.866;12.750;2022-11-20T00:28:27;43.53;;;24.93;;
4375;SDS011;2202;50.866;12.750;2022-11-20T00:30:59;42.27;;;24.27;;
4375;SDS011;2202;50.866;12.750;2022-11-20T00:33:27;42.07;;;23.67;;
4375;SDS011;2202;50.866;12.750;2022-11-20T00:35:56;44.23;;;24.03;;
4375;SDS011;2202;50.866;12.750;2022-11-20T00:38:25;47.90;;;23.30;;
4375;SDS011;2202;50.866;12.750;2022-11-20T00:40:54;45.47;;;23.97;;
4375;SDS011;2202;50.866;12.750;2022-11-20T00:43:22;41.00;;;25.27;;
4375;SDS011;2202;50.866;12.750;2022-11-20T00:45:49;42.10;;;24.00;;
4375;SDS011;2202;50.866;12.750;2022-11-20T00:48:15;46.23;;;25.50;;
4375;SDS011;2202;50.866;12.750;2022-11-20T00:50:42;39.03;;;22.90;;
4375;SDS011;2202;50.866;12.750;2022-11-20T00:53:10;46.33;;;23.33;;
4375;SDS011;2202;50.866;12.750;2022-11-20T00:55:37;38.30;;;23.93;;
4375;SDS011;2202;50.866;12.750;2022-11-20T00:58:04;45.83;;;26.40;;
4375;SDS011;2202;50.866;12.750;2022-11-20T01:00:31;43.83;;;22.30;;
4375;SDS011;2202;50.866;12.750;2022-11-20T01:02:58;38.27;;;22.30;;
4375;SDS011;2202;50.866;12.750;2022-11-20T01:05:24;44.33;;;23.73;;
4375;SDS011;2202;50.866;12.750;2022-11-20T01:07:51;41.67;;;22.67;;
4375;SDS011;2202;50.866;12.750;2022-11-20T01:10:19;43.20;;;23.93;;
4375;SDS011;2202;50.866;12.750;2022-11-20T01:12:46;40.73;;;22.40;;
4375;SDS011;2202;50.866;12.750;2022-11-20T01:15:33;47.10;;;25.37;;
4375;SDS011;2202;50.866;12.750;2022-11-20T01:18:01;40.33;;;22.43;;
4375;SDS011;2202;50.866;12.750;2022-11-20T01:20:28;40.20;;;25.00;;
4375;SDS011;2202;50.866;12.750;2022-11-20T01:22:55;37.03;;;22.80;;
4375;SDS011;2202;50.866;12.750;2022-11-20T01:25:23;43.03;;;21.87;;
4375;SDS011;2202;50.866;12.750;2022-11-20T01:27:50;41.43;;;21.87;;
4375;SDS011;2202;50.866;12.750;2022-11-20T01:30:17;36.60;;;23.77;;
4375;SDS011;2202;50.866;12.750;2022-11-20T01:32:44;43.50;;;21.80;;
4375;SDS011;2202;50.866;12.750;2022-11-20T01:35:11;35.70;;;20.97;;
4375;SDS011;2202;50.866;12.750;2022-11-20T01:37:37;39.07;;;23.00;;
4375;SDS011;2202;50.866;12.750;2022-11-20T01:40:05;40.27;;;23.03;;
4375;SDS011;2202;50.866;12.750;2022-11-20T01:42:33;43.30;;;22.93;;
4375;SDS011;2202;50.866;12.750;2022-11-20T01:48:21;40.97;;;21.20;;
4375;SDS011;2202;50.866;12.750;2022-11-20T01:50:51;40.60;;;23.40;;
4375;SDS011;2202;50.866;12.750;2022-11-20T01:53:21;44.10;;;24.00;;
4375;SDS011;2202;50.866;12.750;2022-11-20T01:55:51;41.10;;;22.80;;
4375;SDS011;2202;50.866;12.750;2022-11-20T01:58:22;48.03;;;23.50;;
4375;SDS011;2202;50.866;12.750;2022-11-20T02:00:54;35.47;;;22.67;;
4375;SDS011;2202;50.866;12.750;2022-11-20T02:03:21;36.50;;;20.13;;
4375;SDS011;2202;50.866;12.750;2022-11-20T02:05:49;35.20;;;21.77;;
4375;SDS011;2202;50.866;12.750;2022-11-20T02:08:20;38.10;;;21.30;;
4375;SDS011;2202;50.866;12.750;2022-11-20T02:10:47;36.00;;;20.83;;
4375;SDS011;2202;50.866;12.750;2022-11-20T02:13:14;41.73;;;23.03;;
4375;SDS011;2202;50.866;12.750;2022-11-20T02:16:00;37.70;;;22.20;;
4375;SDS011;2202;50.866;12.750;2022-11-20T02:18:28;36.97;;;20.90;;
4375;SDS011;2202;50.866;12.750;2022-11-20T02:20:57;45.20;;;23.10;;
4375;SDS011;2202;50.866;12.750;2022-11-20T02:23:30;40.03;;;20.57;;
4375;SDS011;2202;50.866;12.750;2022-11-20T02:26:04;41.53;;;20.57;;
4375;SDS011;2202;50.866;12.750;2022-11-20T02:28:35;43.27;;;20.60;;
4375;SDS011;2202;50.866;12.750;2022-11-20T02:31:02;40.53;;;21.83;;
4375;SDS011;2202;50.866;12.750;2022-11-20T02:33:29;38.30;;;21.90;;
4375;SDS011;2202;50.866;12.750;2022-11-20T02:35:56;35.77;;;21.00;;
4375;SDS011;2202;50.866;12.750;2022-11-20T02:38:22;36.37;;;21.27;;
4375;SDS011;2202;50.866;12.750;2022-11-20T02:40:49;33.77;;;19.40;;
4375;SDS011;2202;50.866;12.750;2022-11-20T02:43:18;42.67;;;22.20;;
4375;SDS011;2202;50.866;12.750;2022-11-20T02:45:45;31.53;;;21.27;;
4375;SDS011;2202;50.866;12.750;2022-11-20T02:48:11;40.57;;;22.70;;
4375;SDS011;2202;50.866;12.750;2022-11-20T02:50:38;41.80;;;20.57;;
4375;SDS011;2202;50.866;12.750;2022-11-20T02:53:06;41.87;;;23.73;;
4375;SDS011;2202;50.866;12.750;2022-11-20T02:55:33;36.80;;;20.00;;
4375;SDS011;2202;50.866;12.750;2022-11-20T02:58:00;34.43;;;20.37;;
4375;SDS011;2202;50.866;12.750;2022-11-20T03:00:28;36.73;;;20.20;;
4375;SDS011;2202;50.866;12.750;2022-11-20T03:02:55;36.57;;;19.80;;
4375;SDS011;2202;50.866;12.750;2022-11-20T03:05:22;36.37;;;21.10;;
4375;SDS011;2202;50.866;12.750;2022-11-20T03:07:49;43.10;;;21.67;;
4375;SDS011;2202;50.866;12.750;2022-11-20T03:10:16;41.90;;;23.43;;
4375;SDS011;2202;50.866;12.750;2022-11-20T03:12:43;35.87;;;19.90;;
4375;SDS011;2202;50.866;12.750;2022-11-20T03:15:10;37.90;;;21.53;;
4375;SDS011;2202;50.866;12.750;2022-11-20T03:17:38;34.47;;;18.87;;
4375;SDS011;2202;50.866;12.750;2022-11-20T03:20:06;33.93;;;21.57;;
4375;SDS011;2202;50.866;12.750;2022-11-20T03:22:34;40.97;;;21.83;;
4375;SDS011;2202;50.866;12.750;2022-11-20T03:25:01;32.17;;;18.60;;
4375;SDS011;2202;50.866;12.750;2022-11-20T03:27:31;36.17;;;19.90;;
4375;SDS011;2202;50.866;12.750;2022-11-20T03:29:59;37.97;;;20.07;;
4375;SDS011;2202;50.866;12.750;2022-11-20T03:32:26;31.43;;;17.93;;
4375;SDS011;2202;50.866;12.750;2022-11-20T03:34:54;28.90;;;18.70;;
4375;SDS011;2202;50.866;12.750;2022-11-20T03:37:21;36.03;;;19.47;;
4375;SDS011;2202;50.866;12.750;2022-11-20T03:39:48;37.10;;;20.70;;
4375;SDS011;2202;50.866;12.750;2022-11-20T03:42:14;38.07;;;21.97;;
4375;SDS011;2202;50.866;12.750;2022-11-20T03:44:55;40.87;;;21.20;;
4375;SDS011;2202;50.866;12.750;2022-11-20T03:47:22;36.97;;;20.40;;
4375;SDS011;2202;50.866;12.750;2022-11-20T03:49:49;41.57;;;21.30;;
4375;SDS011;2202;50.866;12.750;2022-11-20T03:52:17;37.10;;;19.00;;
4375;SDS011;2202;50.866;12.750;2022-11-20T03:54:44;36.93;;;20.60;;
4375;SDS011;2202;50.866;12.750;2022-11-20T03:57:11;34.50;;;19.17;;
4375;SDS011;2202;50.866;12.750;2022-11-20T03:59:38;30.73;;;18.30;;
4375;SDS011;2202;50.866;12.750;2022-11-20T04:02:04;32.67;;;19.63;;
4375;SDS011;2202;50.866;12.750;2022-11-20T04:04:31;33.87;;;19.10;;
4375;SDS011;2202;50.866;12.750;2022-11-20T04:06:58;34.87;;;19.53;;
4375;SDS011;2202;50.866;12.750;2022-11-20T04:09:26;37.47;;;20.00;;
4375;SDS011;2202;50.866;12.750;2022-11-20T04:11:53;36.70;;;20.47;;
4375;SDS011;2202;50.866;12.750;2022-11-20T04:14:20;33.57;;;18.90;;
4375;SDS011;2202;50.866;12.750;2022-11-20T04:16:47;33.60;;;19.00;;
4375;SDS011;2202;50.866;12.750;2022-11-20T04:19:14;37.10;;;18.90;;
4375;SDS011;2202;50.866;12.750;2022-11-20T04:21:42;33.90;;;18.57;;
4375;SDS011;2202;50.866;12.750;2022-11-20T04:24:10;38.37;;;19.70;;
4375;SDS011;2202;50.866;12.750;2022-11-20T04:26:38;30.50;;;18.77;;
4375;SDS011;2202;50.866;12.750;2022-11-20T04:29:06;28.33;;;16.07;;
4375;SDS011;2202;50.866;12.750;2022-11-20T04:31:36;33.43;;;17.40;;
4375;SDS011;2202;50.866;12.750;2022-11-20T04:34:04;32.20;;;19.30;;
4375;SDS011;2202;50.866;12.750;2022-11-20T04:36:32;30.47;;;18.67;;
4375;SDS011;2202;50.866;12.750;2022-11-20T04:39:00;37.60;;;18.93;;
4375;SDS011;2202;50.866;12.750;2022-11-20T04:41:29;34.93;;;17.10;;
4375;SDS011;2202;50.866;12.750;2022-11-20T04:44:00;28.13;;;16.37;;
4375;SDS011;2202;50.866;12.750;2022-11-20T04:46:28;27.93;;;15.47;;
4375;SDS011;2202;50.866;12.750;2022-11-20T04:48:56;28.90;;;17.20;;
4375;SDS011;2202;50.866;12.750;2022-11-20T04:51:23;29.07;;;16.33;;
4375;SDS011;2202;50.866;12.750;2022-11-20T04:53:50;34.57;;;17.90;;
4375;SDS011;2202;50.866;12.750;2022-11-20T04:56:17;27.23;;;16.47;;
4375;SDS011;2202;50.866;12.750;2022-11-20T04:58:44;28.53;;;16.20;;
4375;SDS011;2202;50.866;12.750;2022-11-20T05:01:13;26.67;;;16.70;;
4375;SDS011;2202;50.866;12.750;2022-11-20T05:03:41;29.60;;;15.40;;
4375;SDS011;2202;50.866;12.750;2022-11-20T05:06:09;26.53;;;15.40;;
4375;SDS011;2202;50.866;12.750;2022-11-20T05:08:36;25.87;;;13.97;;
4375;SDS011;2202;50.866;12.750;2022-11-20T05:11:04;32.70;;;16.83;;
4375;SDS011;2202;50.866;12.750;2022-11-20T05:13:32;25.20;;;14.40;;
4375;SDS011;2202;50.866;12.750;2022-11-20T05:16:02;28.60;;;15.03;;
4375;SDS011;2202;50.866;12.750;2022-11-20T05:18:32;27.47;;;16.37;;
4375;SDS011;2202;50.866;12.750;2022-11-20T05:20:59;28.83;;;16.00;;
4375;SDS011;2202;50.866;12.750;2022-11-20T05:23:29;30.17;;;16.33;;
4375;SDS011;2202;50.866;12.750;2022-11-20T05:25:56;23.30;;;14.03;;
4375;SDS011;2202;50.866;12.750;2022-11-20T05:28:24;26.70;;;14.67;;
4375;SDS011;2202;50.866;12.750;2022-11-20T05:30:51;26.87;;;14.70;;
4375;SDS011;2202;50.866;12.750;2022-11-20T05:33:18;24.60;;;12.60;;
4375;SDS011;2202;50.866;12.750;2022-11-20T05:35:47;25.07;;;14.17;;
4375;SDS011;2202;50.866;12.750;2022-11-20T05:38:14;25.57;;;13.80;;
4375;SDS011;2202;50.866;12.750;2022-11-20T05:40:40;23.90;;;13.73;;
4375;SDS011;2202;50.866;12.750;2022-11-20T05:43:07;29.00;;;15.30;;
4375;SDS011;2202;50.866;12.750;2022-11-20T05:45:34;18.97;;;11.70;;
4375;SDS011;2202;50.866;12.750;2022-11-20T05:48:01;21.87;;;13.30;;
4375;SDS011;2202;50.866;12.750;2022-11-20T05:50:28;20.37;;;13.77;;
4375;SDS011;2202;50.866;12.750;2022-11-20T05:52:58;23.33;;;13.43;;
4375;SDS011;2202;50.866;12.750;2022-11-20T05:55:26;23.60;;;13.07;;
4375;SDS011;2202;50.866;12.750;2022-11-20T05:57:52;23.03;;;12.73;;
4375;SDS011;2202;50.866;12.750;2022-11-20T06:00:20;24.67;;;12.30;;
4375;SDS011;2202;50.866;12.750;2022-11-20T06:02:47;26.53;;;12.70;;
4375;SDS011;2202;50.866;12.750;2022-11-20T06:05:14;22.27;;;13.13;;
4375;SDS011;2202;50.866;12.750;2022-11-20T06:07:40;22.80;;;12.83;;
4375;SDS011;2202;50.866;12.750;2022-11-20T06:10:09;25.00;;;13.90;;
4375;SDS011;2202;50.866;12.750;2022-11-20T06:12:36;19.40;;;11.60;;
4375;SDS011;2202;50.866;12.750;2022-11-20T06:15:03;18.53;;;11.03;;
4375;SDS011;2202;50.866;12.750;2022-11-20T06:17:31;21.97;;;11.60;;
4375;SDS011;2202;50.866;12.750;2022-11-20T06:19:57;18.73;;;11.17;;
4375;SDS011;2202;50.866;12.750;2022-11-20T06:22:24;24.57;;;11.50;;
4375;SDS011;2202;50.866;12.750;2022-11-20T06:24:51;21.50;;;11.33;;
4375;SDS011;2202;50.866;12.750;2022-11-20T06:27:19;20.43;;;10.67;;
4375;SDS011;2202;50.866;12.750;2022-11-20T06:29:46;17.60;;;10.90;;
4375;SDS011;2202;50.866;12.750;2022-11-20T06:32:13;18.07;;;10.50;;
4375;SDS011;2202;50.866;12.750;2022-11-20T06:34:40;19.37;;;10.73;;
4375;SDS011;2202;50.866;12.750;2022-11-20T06:37:07;14.67;;;8.87;;
4375;SDS011;2202;50.866;12.750;2022-11-20T06:39:33;19.77;;;10.60;;
4375;SDS011;2202;50.866;12.750;2022-11-20T06:42:00;17.80;;;10.00;;
4375;SDS011;2202;50.866;12.750;2022-11-20T06:44:29;23.40;;;12.60;;
4375;SDS011;2202;50.866;12.750;2022-11-20T06:46:56;51.47;;;21.77;;
4375;SDS011;2202;50.866;12.750;2022-11-20T06:49:22;49.80;;;21.83;;
4375;SDS011;2202;50.866;12.750;2022-11-20T06:51:50;57.60;;;25.50;;
4375;SDS011;2202;50.866;12.750;2022-11-20T06:54:17;52.27;;;26.87;;
4375;SDS011;2202;50.866;12.750;2022-11-20T06:56:46;65.80;;;27.60;;
4375;SDS011;2202;50.866;12.750;2022-11-20T06:59:13;49.30;;;22.67;;
4375;SDS011;2202;50.866;12.750;2022-11-20T07:01:42;34.10;;;15.93;;
4375;SDS011;2202;50.866;12.750;2022-11-20T07:04:08;36.87;;;15.60;;
4375;SDS011;2202;50.866;12.750;2022-11-20T07:06:35;25.23;;;11.73;;
4375;SDS011;2202;50.866;12.750;2022-11-20T07:09:02;20.63;;;11.27;;
4375;SDS011;2202;50.866;12.750;2022-11-20T07:11:29;17.87;;;10.10;;
4375;SDS011;2202;50.866;12.750;2022-11-20T07:13:56;21.30;;;11.40;;
4375;SDS011;2202;50.866;12.750;2022-11-20T07:16:23;21.30;;;10.00;;
4375;SDS011;2202;50.866;12.750;2022-11-20T07:18:51;19.40;;;9.87;;
4375;SDS011;2202;50.866;12.750;2022-11-20T07:21:18;20.67;;;9.80;;
4375;SDS011;2202;50.866;12.750;2022-11-20T07:23:45;21.87;;;11.50;;
4375;SDS011;2202;50.866;12.750;2022-11-20T07:26:12;15.80;;;10.80;;
4375;SDS011;2202;50.866;12.750;2022-11-20T07:28:39;17.40;;;10.40;;
4375;SDS011;2202;50.866;12.750;2022-11-20T07:31:06;20.93;;;10.67;;
4375;SDS011;2202;50.866;12.750;2022-11-20T07:33:33;16.07;;;10.70;;
4375;SDS011;2202;50.866;12.750;2022-11-20T07:36:01;20.40;;;11.00;;
4375;SDS011;2202;50.866;12.750;2022-11-20T07:38:28;16.40;;;10.10;;
4375;SDS011;2202;50.866;12.750;2022-11-20T07:40:55;16.83;;;10.33;;
4375;SDS011;2202;50.866;12.750;2022-11-20T07:43:23;19.70;;;11.03;;
4375;SDS011;2202;50.866;12.750;2022-11-20T07:45:51;24.30;;;12.97;;
4375;SDS011;2202;50.866;12.750;2022-11-20T07:48:17;20.63;;;11.70;;
4375;SDS011;2202;50.866;12.750;2022-11-20T07:50:44;25.27;;;15.50;;
4375;SDS011;2202;50.866;12.750;2022-11-20T07:53:12;29.90;;;16.37;;
4375;SDS011;2202;50.866;12.750;2022-11-20T07:55:45;24.13;;;13.73;;
4375;SDS011;2202;50.866;12.750;2022-11-20T07:58:12;18.47;;;10.80;;
4375;SDS011;2202;50.866;12.750;2022-11-20T08:00:39;23.97;;;12.73;;
4375;SDS011;2202;50.866;12.750;2022-11-20T08:03:07;23.80;;;11.00;;
4375;SDS011;2202;50.866;12.750;2022-11-20T08:05:33;24.70;;;11.77;;
4375;SDS011;2202;50.866;12.750;2022-11-20T08:08:00;23.67;;;11.57;;
4375;SDS011;2202;50.866;12.750;2022-11-20T08:10:28;25.97;;;12.53;;
4375;SDS011;2202;50.866;12.750;2022-11-20T08:12:55;20.50;;;11.87;;
4375;SDS011;2202;50.866;12.750;2022-11-20T08:15:39;20.17;;;11.53;;
4375;SDS011;2202;50.866;12.750;2022-11-20T08:18:07;27.93;;;13.43;;
4375;SDS011;2202;50.866;12.750;2022-11-20T08:20:35;22.40;;;12.53;;
4375;SDS011;2202;50.866;12.750;2022-11-20T08:23:03;19.90;;;10.60;;
4375;SDS011;2202;50.866;12.750;2022-11-20T08:25:34;19.03;;;11.53;;
4375;SDS011;2202;50.866;12.750;2022-11-20T08:28:03;25.07;;;12.57;;
4375;SDS011;2202;50.866;12.750;2022-11-20T08:30:31;23.27;;;11.70;;
4375;SDS011;2202;50.866;12.750;2022-11-20T08:33:00;24.33;;;13.20;;
4375;SDS011;2202;50.866;12.750;2022-11-20T08:35:28;27.20;;;13.00;;
4375;SDS011;2202;50.866;12.750;2022-11-20T08:37:58;25.63;;;13.77;;
4375;SDS011;2202;50.866;12.750;2022-11-20T08:40:25;23.70;;;14.20;;
4375;SDS011;2202;50.866;12.750;2022-11-20T08:42:53;32.57;;;15.40;;
4375;SDS011;2202;50.866;12.750;2022-11-20T08:45:20;23.37;;;13.80;;
4375;SDS011;2202;50.866;12.750;2022-11-20T08:47:47;24.60;;;13.90;;
4375;SDS011;2202;50.866;12.750;2022-11-20T08:50:14;25.00;;;15.70;;
4375;SDS011;2202;50.866;12.750;2022-11-20T08:52:42;24.47;;;15.00;;
4375;SDS011;2202;50.866;12.750;2022-11-20T08:55:09;24.53;;;13.30;;
4375;SDS011;2202;50.866;12.750;2022-11-20T08:57:36;26.40;;;14.43;;
4375;SDS011;2202;50.866;12.750;2022-11-20T09:00:06;20.37;;;11.20;;
4375;SDS011;2202;50.866;12.750;2022-11-20T09:02:36;21.03;;;12.47;;
4375;SDS011;2202;50.866;12.750;2022-11-20T09:05:03;23.50;;;13.07;;
4375;SDS011;2202;50.866;12.750;2022-11-20T09:07:31;24.97;;;13.00;;
4375;SDS011;2202;50.866;12.750;2022-11-20T09:09:58;27.00;;;13.90;;
4375;SDS011;2202;50.866;12.750;2022-11-20T09:12:25;21.70;;;11.87;;
4375;SDS011;2202;50.866;12.750;2022-11-20T09:14:51;27.33;;;15.50;;
4375;SDS011;2202;50.866;12.750;2022-11-20T09:17:20;25.40;;;14.23;;
4375;SDS011;2202;50.866;12.750;2022-11-20T09:19:46;24.73;;;14.70;;
4375;SDS011;2202;50.866;12.750;2022-11-20T09:22:13;23.60;;;11.80;;
4375;SDS011;2202;50.866;12.750;2022-11-20T09:24:40;21.40;;;11.67;;
4375;SDS011;2202;50.866;12.750;2022-11-20T09:27:07;28.63;;;14.10;;
4375;SDS011;2202;50.866;12.750;2022-11-20T09:29:34;29.13;;;15.00;;
4375;SDS011;2202;50.866;12.750;2022-11-20T09:32:01;24.83;;;14.60;;
4375;SDS011;2202;50.866;12.750;2022-11-20T09:34:30;22.03;;;13.40;;
4375;SDS011;2202;50.866;12.750;2022-11-20T09:36:56;22.33;;;13.30;;
4375;SDS011;2202;50.866;12.750;2022-11-20T09:39:23;28.60;;;13.50;;
4375;SDS011;2202;50.866;12.750;2022-11-20T09:41:56;24.17;;;12.40;;
4375;SDS011;2202;50.866;12.750;2022-11-20T09:44:40;23.03;;;12.00;;
4375;SDS011;2202;50.866;12.750;2022-11-20T09:47:22;30.03;;;13.20;;
4375;SDS011;2202;50.866;12.750;2022-11-20T09:50:04;24.47;;;13.93;;
4375;SDS011;2202;50.866;12.750;2022-11-20T09:52:44;22.83;;;14.00;;
4375;SDS011;2202;50.866;12.750;2022-11-20T09:55:19;22.00;;;12.50;;
4375;SDS011;2202;50.866;12.750;2022-11-20T09:57:46;25.97;;;13.00;;
4375;SDS011;2202;50.866;12.750;2022-11-20T10:00:16;23.93;;;12.60;;
4375;SDS011;2202;50.866;12.750;2022-11-20T10:02:47;33.27;;;17.77;;
4375;SDS011;2202;50.866;12.750;2022-11-20T10:05:20;30.13;;;16.10;;
4375;SDS011;2202;50.866;12.750;2022-11-20T10:07:52;27.50;;;14.20;;
4375;SDS011;2202;50.866;12.750;2022-11-20T10:10:28;32.93;;;18.37;;
4375;SDS011;2202;50.866;12.750;2022-11-20T10:13:02;27.23;;;14.20;;
4375;SDS011;2202;50.866;12.750;2022-11-20T10:15:43;27.03;;;14.23;;
4375;SDS011;2202;50.866;12.750;2022-11-20T10:18:23;26.23;;;13.90;;
4375;SDS011;2202;50.866;12.750;2022-11-20T10:21:01;26.10;;;15.37;;
4375;SDS011;2202;50.866;12.750;2022-11-20T10:23:45;29.30;;;15.60;;
4375;SDS011;2202;50.866;12.750;2022-11-20T10:26:28;27.40;;;17.67;;
4375;SDS011;2202;50.866;12.750;2022-11-20T10:29:09;35.53;;;17.80;;
4375;SDS011;2202;50.866;12.750;2022-11-20T10:31:39;32.67;;;17.93;;
4375;SDS011;2202;50.866;12.750;2022-11-20T10:34:11;35.67;;;18.70;;
4375;SDS011;2202;50.866;12.750;2022-11-20T10:36:49;38.20;;;19.17;;
4375;SDS011;2202;50.866;12.750;2022-11-20T10:39:22;29.37;;;16.53;;
4375;SDS011;2202;50.866;12.750;2022-11-20T10:41:56;29.00;;;17.40;;
4375;SDS011;2202;50.866;12.750;2022-11-20T10:44:26;32.63;;;17.07;;
4375;SDS011;2202;50.866;12.750;2022-11-20T10:47:12;34.17;;;18.17;;
4375;SDS011;2202;50.866;12.750;2022-11-20T10:49:41;32.30;;;18.60;;
4375;SDS011;2202;50.866;12.750;2022-11-20T10:52:12;36.60;;;18.60;;
4375;SDS011;2202;50.866;12.750;2022-11-20T10:54:48;29.57;;;17.87;;
4375;SDS011;2202;50.866;12.750;2022-11-20T10:57:25;29.57;;;16.60;;
4375;SDS011;2202;50.866;12.750;2022-11-20T11:00:04;31.63;;;16.23;;
4375;SDS011;2202;50.866;12.750;2022-11-20T11:02:33;32.70;;;16.00;;
4375;SDS011;2202;50.866;12.750;2022-11-20T11:05:10;33.90;;;19.13;;
4375;SDS011;2202;50.866;12.750;2022-11-20T11:07:50;49.03;;;28.90;;
4375;SDS011;2202;50.866;12.750;2022-11-20T11:10:20;33.57;;;18.20;;
4375;SDS011;2202;50.866;12.750;2022-11-20T11:12:52;28.13;;;17.87;;
4375;SDS011;2202;50.866;12.750;2022-11-20T11:15:25;47.33;;;22.20;;
4375;SDS011;2202;50.866;12.750;2022-11-20T11:17:53;39.43;;;21.93;;
4375;SDS011;2202;50.866;12.750;2022-11-20T11:20:21;35.17;;;19.93;;
4375;SDS011;2202;50.866;12.750;2022-11-20T11:22:50;33.60;;;18.70;;
4375;SDS011;2202;50.866;12.750;2022-11-20T11:25:30;32.70;;;19.23;;
4375;SDS011;2202;50.866;12.750;2022-11-20T11:27:59;34.10;;;18.90;;
4375;SDS011;2202;50.866;12.750;2022-11-20T11:30:29;31.00;;;17.73;;
4375;SDS011;2202;50.866;12.750;2022-11-20T11:33:09;32.37;;;17.27;;
4375;SDS011;2202;50.866;12.750;2022-11-20T11:35:39;33.80;;;17.90;;
4375;SDS011;2202;50.866;12.750;2022-11-20T11:38:14;37.97;;;19.83;;
4375;SDS011;2202;50.866;12.750;2022-11-20T11:40:45;28.63;;;17.03;;
4375;SDS011;2202;50.866;12.750;2022-11-20T11:43:19;40.07;;;22.27;;
4375;SDS011;2202;50.866;12.750;2022-11-20T11:46:10;33.33;;;17.37;;
4375;SDS011;2202;50.866;12.750;2022-11-20T11:48:57;31.67;;;18.73;;
4375;SDS011;2202;50.866;12.750;2022-11-20T11:51:26;28.10;;;15.50;;
4375;SDS011;2202;50.866;12.750;2022-11-20T11:54:02;30.53;;;16.73;;
4375;SDS011;2202;50.866;12.750;2022-11-20T11:56:37;35.77;;;18.03;;
4375;SDS011;2202;50.866;12.750;2022-11-20T11:59:04;36.17;;;19.53;;
4375;SDS011;2202;50.866;12.750;2022-11-20T12:01:37;34.63;;;20.00;;
4375;SDS011;2202;50.866;12.750;2022-11-20T12:04:11;30.20;;;17.17;;
4375;SDS011;2202;50.866;12.750;2022-11-20T12:06:45;29.77;;;17.47;;
4375;SDS011;2202;50.866;12.750;2022-11-20T12:09:19;37.37;;;18.97;;
4375;SDS011;2202;50.866;12.750;2022-11-20T12:11:52;33.07;;;18.47;;
4375;SDS011;2202;50.866;12.750;2022-11-20T12:14:26;40.03;;;19.97;;
4375;SDS011;2202;50.866;12.750;2022-11-20T12:16:58;31.07;;;17.53;;
4375;SDS011;2202;50.866;12.750;2022-11-20T12:19:26;29.40;;;19.10;;
4375;SDS011;2202;50.866;12.750;2022-11-20T12:21:58;28.23;;;16.13;;
4375;SDS011;2202;50.866;12.750;2022-11-20T12:24:35;32.10;;;18.73;;
4375;SDS011;2202;50.866;12.750;2022-11-20T12:27:27;25.77;;;16.20;;
4375;SDS011;2202;50.866;12.750;2022-11-20T12:30:19;25.90;;;17.20;;
4375;SDS011;2202;50.866;12.750;2022-11-20T12:36:07;38.30;;;20.90;;
4375;SDS011;2202;50.866;12.750;2022-11-20T12:38:50;32.43;;;17.60;;
4375;SDS011;2202;50.866;12.750;2022-11-20T12:41:48;30.37;;;18.07;;
4375;SDS011;2202;50.866;12.750;2022-11-20T12:44:52;33.73;;;19.30;;
4375;SDS011;2202;50.866;12.750;2022-11-20T12:47:39;42.43;;;26.60;;
4375;SDS011;2202;50.866;12.750;2022-11-20T12:50:22;36.13;;;20.93;;
4375;SDS011;2202;50.866;12.750;2022-11-20T12:52:57;30.63;;;19.00;;
4375;SDS011;2202;50.866;12.750;2022-11-20T12:55:32;29.63;;;19.43;;
4375;SDS011;2202;50.866;12.750;2022-11-20T12:58:10;37.23;;;19.83;;
4375;SDS011;2202;50.866;12.750;2022-11-20T13:00:47;37.47;;;20.03;;
4375;SDS011;2202;50.866;12.750;2022-11-20T13:03:32;34.73;;;19.00;;
4375;SDS011;2202;50.866;12.750;2022-11-20T13:06:11;34.33;;;21.43;;
4375;SDS011;2202;50.866;12.750;2022-11-20T13:08:41;40.83;;;22.43;;
4375;SDS011;2202;50.866;12.750;2022-11-20T13:11:13;34.47;;;19.60;;
4375;SDS011;2202;50.866;12.750;2022-11-20T13:13:51;35.80;;;18.80;;
4375;SDS011;2202;50.866;12.750;2022-11-20T13:16:31;38.70;;;21.43;;
4375;SDS011;2202;50.866;12.750;2022-11-20T13:19:03;37.13;;;21.97;;
4375;SDS011;2202;50.866;12.750;2022-11-20T13:21:38;35.43;;;20.67;;
4375;SDS011;2202;50.866;12.750;2022-11-20T13:24:07;35.03;;;20.63;;
4375;SDS011;2202;50.866;12.750;2022-11-20T13:26:48;32.77;;;20.10;;
4375;SDS011;2202;50.866;12.750;2022-11-20T13:29:27;40.10;;;21.20;;
4375;SDS011;2202;50.866;12.750;2022-11-20T13:32:01;37.93;;;20.60;;
4375;SDS011;2202;50.866;12.750;2022-11-20T13:34:30;37.53;;;20.10;;
4375;SDS011;2202;50.866;12.750;2022-11-20T13:36:57;37.73;;;20.10;;
4375;SDS011;2202;50.866;12.750;2022-11-20T13:39:29;34.23;;;20.30;;
4375;SDS011;2202;50.866;12.750;2022-11-20T13:41:57;38.27;;;21.57;;
4375;SDS011;2202;50.866;12.750;2022-11-20T13:44:29;42.00;;;21.80;;
4375;SDS011;2202;50.866;12.750;2022-11-20T13:47:00;34.37;;;21.00;;
4375;SDS011;2202;50.866;12.750;2022-11-20T13:49:29;37.40;;;21.10;;
4375;SDS011;2202;50.866;12.750;2022-11-20T13:52:01;34.57;;;19.30;;
4375;SDS011;2202;50.866;12.750;2022-11-20T13:57:49;35.40;;;19.50;;
4375;SDS011;2202;50.866;12.750;2022-11-20T14:00:41;36.13;;;21.90;;
4375;SDS011;2202;50.866;12.750;2022-11-20T14:03:13;42.30;;;22.97;;
4375;SDS011;2202;50.866;12.750;2022-11-20T14:05:46;41.93;;;22.80;;
4375;SDS011;2202;50.866;12.750;2022-11-20T14:08:19;32.50;;;18.17;;
4375;SDS011;2202;50.866;12.750;2022-11-20T14:11:02;28.03;;;15.10;;
4375;SDS011;2202;50.866;12.750;2022-11-20T14:13:38;29.13;;;15.70;;
4375;SDS011;2202;50.866;12.750;2022-11-20T14:16:08;28.33;;;15.50;;
4375;SDS011;2202;50.866;12.750;2022-11-20T14:18:35;25.80;;;14.90;;
4375;SDS011;2202;50.866;12.750;2022-11-20T14:21:02;25.20;;;15.60;;
4375;SDS011;2202;50.866;12.750;2022-11-20T14:23:30;25.90;;;14.87;;
4375;SDS011;2202;50.866;12.750;2022-11-20T14:25:57;26.00;;;15.20;;
4375;SDS011;2202;50.866;12.750;2022-11-20T14:28:25;28.70;;;15.50;;
4375;SDS011;2202;50.866;12.750;2022-11-20T14:30:53;28.03;;;16.83;;
4375;SDS011;2202;50.866;12.750;2022-11-20T14:33:22;29.40;;;17.37;;
4375;SDS011;2202;50.866;12.750;2022-11-20T14:35:52;28.93;;;16.77;;
4375;SDS011;2202;50.866;12.750;2022-11-20T14:38:21;27.10;;;14.17;;
4375;SDS011;2202;50.866;12.750;2022-11-20T14:40:50;24.37;;;15.30;;
4375;SDS011;2202;50.866;12.750;2022-11-20T14:43:19;26.80;;;15.83;;
4375;SDS011;2202;50.866;12.750;2022-11-20T14:45:49;31.37;;;16.00;;
4375;SDS011;2202;50.866;12.750;2022-11-20T14:48:25;27.70;;;16.70;;
4375;SDS011;2202;50.866;12.750;2022-11-20T14:50:56;29.90;;;16.60;;
4375;SDS011;2202;50.866;12.750;2022-11-20T14:53:23;34.57;;;19.97;;
4375;SDS011;2202;50.866;12.750;2022-11-20T14:55:54;27.70;;;18.57;;
4375;SDS011;2202;50.866;12.750;2022-11-20T14:58:24;32.83;;;20.50;;
4375;SDS011;2202;50.866;12.750;2022-11-20T15:00:53;32.00;;;18.27;;
4375;SDS011;2202;50.866;12.750;2022-11-20T15:03:21;28.90;;;16.50;;